createdAt,value
2024-04-23T00:00:16.678Z,651.00
2024-04-23T00:01:16.719Z,662.00
2024-04-23T00:02:16.705Z,661.00
2024-04-23T00:03:16.722Z,661.00
2024-04-23T00:04:16.722Z,660.00
2024-04-23T00:05:16.830Z,653.00
2024-04-23T00:06:16.818Z,646.00
2024-04-23T00:07:16.871Z,654.00
2024-04-23T00:08:16.946Z,648.00
2024-04-23T00:09:17.019Z,641.00
2024-04-23T00:10:17.124Z,635.00
2024-04-23T00:11:17.314Z,640.00
2024-04-23T00:12:17.322Z,633.00
2024-04-23T00:13:17.341Z,630.00
2024-04-23T00:14:17.451Z,643.00
2024-04-23T00:15:17.541Z,643.00
2024-04-23T00:16:17.622Z,639.00
2024-04-23T00:17:17.702Z,639.00
2024-04-23T00:18:17.885Z,635.00
2024-04-23T00:19:17.856Z,638.00
2024-04-23T00:20:17.951Z,643.00
2024-04-23T00:21:18.031Z,631.00
2024-04-23T00:22:18.112Z,634.00
2024-04-23T00:23:18.190Z,639.00
2024-04-23T00:24:18.315Z,643.00
2024-04-23T00:25:18.367Z,644.00
2024-04-23T00:26:18.461Z,642.00
2024-04-23T00:27:18.520Z,639.00
2024-04-23T00:28:18.640Z,644.00
2024-04-23T00:29:18.706Z,638.00
2024-04-23T00:30:18.816Z,643.00
2024-04-23T00:31:18.881Z,646.00
2024-04-23T00:32:19.029Z,644.00
2024-04-23T00:33:19.087Z,640.00
2024-04-23T00:34:19.122Z,652.00
2024-04-23T00:35:19.215Z,651.00
2024-04-23T00:36:19.288Z,651.00
2024-04-23T00:37:19.403Z,651.00
2024-04-23T00:38:19.458Z,650.00
2024-04-23T00:39:19.574Z,647.00
2024-04-23T00:40:19.646Z,649.00
2024-04-23T00:41:19.711Z,646.00
2024-04-23T00:42:19.818Z,646.00
2024-04-23T00:43:19.920Z,648.00
2024-04-23T00:44:20.004Z,641.00
2024-04-23T00:45:20.073Z,643.00
2024-04-23T00:46:20.168Z,649.00
2024-04-23T00:47:20.304Z,644.00
2024-04-23T00:48:20.485Z,650.00
2024-04-23T00:49:20.447Z,651.00
2024-04-23T00:50:20.518Z,649.00
2024-04-23T00:51:20.600Z,650.00
2024-04-23T00:52:20.712Z,646.00
2024-04-23T00:53:20.799Z,650.00
2024-04-23T00:54:20.881Z,653.00
2024-04-23T00:55:20.940Z,648.00
2024-04-23T00:56:21.044Z,658.00
2024-04-23T00:57:21.115Z,648.00
2024-04-23T00:58:21.208Z,654.00
2024-04-23T00:59:21.298Z,658.00
2024-04-23T01:00:21.379Z,655.00
2024-04-23T01:01:21.439Z,652.00
2024-04-23T01:02:21.536Z,651.00
2024-04-23T01:03:21.706Z,650.00
2024-04-23T01:04:21.722Z,656.00
2024-04-23T01:05:21.821Z,657.00
2024-04-23T01:06:21.889Z,665.00
2024-04-23T01:07:21.949Z,650.00
2024-04-23T01:08:22.019Z,648.00
2024-04-23T01:09:22.120Z,649.00
2024-04-23T01:10:22.182Z,643.00
2024-04-23T01:11:22.332Z,643.00
2024-04-23T01:12:22.358Z,638.00
2024-04-23T01:13:22.439Z,644.00
2024-04-23T01:14:22.555Z,641.00
2024-04-23T01:15:22.638Z,641.00
2024-04-23T01:16:22.700Z,643.00
2024-04-23T01:17:22.865Z,651.00
2024-04-23T01:18:22.926Z,640.00
2024-04-23T01:19:22.974Z,650.00
2024-04-23T01:20:23.063Z,644.00
2024-04-23T01:21:23.129Z,638.00
2024-04-23T01:22:23.239Z,633.00
2024-04-23T01:23:23.316Z,635.00
2024-04-23T01:24:23.426Z,631.00
2024-04-23T01:25:23.493Z,632.00
2024-04-23T01:26:23.572Z,632.00
2024-04-23T01:27:23.643Z,637.00
2024-04-23T01:28:23.752Z,635.00
2024-04-23T01:29:23.840Z,637.00
2024-04-23T01:30:23.925Z,641.00
2024-04-23T01:31:24.152Z,640.00
2024-04-23T01:32:24.186Z,637.00
2024-04-23T01:33:24.270Z,643.00
2024-04-23T01:34:24.321Z,632.00
2024-04-23T01:35:24.316Z,648.00
2024-04-23T01:36:24.395Z,645.00
2024-04-23T01:37:24.582Z,640.00
2024-04-23T01:38:24.572Z,636.00
2024-04-23T01:39:24.648Z,637.00
2024-04-23T01:40:24.772Z,642.00
2024-04-23T01:41:24.833Z,640.00
2024-04-23T01:42:24.921Z,648.00
2024-04-23T01:43:25.048Z,646.00
2024-04-23T01:44:25.108Z,642.00
2024-04-23T01:45:25.180Z,648.00
2024-04-23T01:46:25.321Z,651.00
2024-04-23T01:47:25.437Z,651.00
2024-04-23T01:48:25.451Z,646.00
2024-04-23T01:49:25.568Z,655.00
2024-04-23T01:50:25.592Z,657.00
2024-04-23T01:51:25.650Z,653.00
2024-04-23T01:52:25.822Z,651.00
2024-04-23T01:53:25.846Z,659.00
2024-04-23T01:54:25.922Z,665.00
2024-04-23T01:55:26.007Z,663.00
2024-04-23T01:56:26.102Z,661.00
2024-04-23T01:57:26.177Z,665.00
2024-04-23T01:58:26.301Z,665.00
2024-04-23T01:59:26.390Z,661.00
2024-04-23T02:00:26.429Z,658.00
2024-04-23T02:01:26.548Z,662.00
2024-04-23T02:02:26.623Z,658.00
2024-04-23T02:03:26.712Z,659.00
2024-04-23T02:04:26.810Z,675.00
2024-04-23T02:05:26.861Z,672.00
2024-04-23T02:06:26.960Z,675.00
2024-04-23T02:07:27.056Z,671.00
2024-04-23T02:08:27.097Z,659.00
2024-04-23T02:09:27.192Z,663.00
2024-04-23T02:10:27.314Z,669.00
2024-04-23T02:11:27.440Z,655.00
2024-04-23T02:12:27.480Z,657.00
2024-04-23T02:13:27.554Z,665.00
2024-04-23T02:14:27.606Z,675.00
2024-04-23T02:15:27.671Z,672.00
2024-04-23T02:16:27.747Z,663.00
2024-04-23T02:17:27.894Z,675.00
2024-04-23T02:18:28.128Z,691.00
2024-04-23T02:19:28.031Z,658.00
2024-04-23T02:20:28.107Z,664.00
2024-04-23T02:21:28.171Z,661.00
2024-04-23T02:22:28.284Z,659.00
2024-04-23T02:23:28.352Z,660.00
2024-04-23T02:24:28.446Z,666.00
2024-04-23T02:25:28.538Z,662.00
2024-04-23T02:26:28.617Z,667.00
2024-04-23T02:27:28.706Z,663.00
2024-04-23T02:28:28.792Z,660.00
2024-04-23T02:29:28.844Z,657.00
2024-04-23T02:30:28.930Z,660.00
2024-04-23T02:31:29.033Z,666.00
2024-04-23T02:32:29.158Z,671.00
2024-04-23T02:33:29.260Z,665.00
2024-04-23T02:34:29.349Z,672.00
2024-04-23T02:35:29.384Z,675.00
2024-04-23T02:36:29.441Z,688.00
2024-04-23T02:37:29.584Z,663.00
2024-04-23T02:38:29.609Z,665.00
2024-04-23T02:39:29.710Z,663.00
2024-04-23T02:40:29.943Z,657.00
2024-04-23T02:41:29.889Z,668.00
2024-04-23T02:42:29.966Z,672.00
2024-04-23T02:43:30.073Z,675.00
2024-04-23T02:44:30.120Z,692.00
2024-04-23T02:45:31.870Z,663.00
2024-04-23T02:46:30.231Z,691.00
2024-04-23T02:47:30.386Z,675.00
2024-04-23T02:48:30.392Z,683.00
2024-04-23T02:49:30.365Z,687.00
2024-04-23T02:50:30.370Z,699.00
2024-04-23T02:51:30.394Z,691.00
2024-04-23T02:52:30.476Z,682.00
2024-04-23T02:53:30.472Z,685.00
2024-04-23T02:54:30.598Z,694.00
2024-04-23T02:55:30.683Z,683.00
2024-04-23T02:56:30.756Z,684.00
2024-04-23T02:57:30.835Z,687.00
2024-04-23T02:58:30.973Z,658.00
2024-04-23T02:59:31.050Z,667.00
2024-04-23T03:00:31.165Z,660.00
2024-04-23T03:01:31.232Z,660.00
2024-04-23T03:02:31.390Z,656.00
2024-04-23T03:03:31.414Z,658.00
2024-04-23T03:04:31.555Z,659.00
2024-04-23T03:05:31.547Z,650.00
2024-04-23T03:06:31.626Z,657.00
2024-04-23T03:07:31.727Z,659.00
2024-04-23T03:08:34.619Z,665.00
2024-04-23T03:09:31.798Z,665.00
2024-04-23T03:10:31.797Z,665.00
2024-04-23T03:11:31.866Z,666.00
2024-04-23T03:12:31.786Z,670.00
2024-04-23T03:13:31.873Z,657.00
2024-04-23T03:14:31.822Z,660.00
2024-04-23T03:15:31.798Z,652.00
2024-04-23T03:16:31.832Z,659.00
2024-04-23T03:17:31.854Z,661.00
2024-04-23T03:18:31.859Z,658.00
2024-04-23T03:19:31.856Z,662.00
2024-04-23T03:20:31.846Z,668.00
2024-04-23T03:21:31.866Z,665.00
2024-04-23T03:22:31.838Z,659.00
2024-04-23T03:23:31.832Z,663.00
2024-04-23T03:24:31.836Z,661.00
2024-04-23T03:25:31.837Z,650.00
2024-04-23T03:26:31.830Z,658.00
2024-04-23T03:27:31.826Z,652.00
2024-04-23T03:28:31.856Z,658.00
2024-04-23T03:29:31.828Z,661.00
2024-04-23T03:30:31.820Z,654.00
2024-04-23T03:31:31.850Z,660.00
2024-04-23T03:32:31.870Z,657.00
2024-04-23T03:33:31.864Z,660.00
2024-04-23T03:34:31.816Z,665.00
2024-04-23T03:35:31.811Z,656.00
2024-04-23T03:36:31.923Z,654.00
2024-04-23T03:37:32.066Z,667.00
2024-04-23T03:38:32.079Z,684.00
2024-04-23T03:39:32.159Z,670.00
2024-04-23T03:40:32.332Z,678.00
2024-04-23T03:41:32.340Z,663.00
2024-04-23T03:42:32.431Z,668.00
2024-04-23T03:43:32.554Z,665.00
2024-04-23T03:44:34.902Z,679.00
2024-04-23T03:45:32.589Z,689.00
2024-04-23T03:46:32.626Z,684.00
2024-04-23T03:47:32.713Z,672.00
2024-04-23T03:48:32.623Z,670.00
2024-04-23T03:49:32.713Z,691.00
2024-04-23T03:50:32.643Z,686.00
2024-04-23T03:51:32.608Z,680.00
2024-04-23T03:52:32.621Z,700.00
2024-04-23T03:53:32.631Z,692.00
2024-04-23T03:54:32.638Z,666.00
2024-04-23T03:55:32.637Z,696.00
2024-04-23T03:56:32.625Z,694.00
2024-04-23T03:57:32.630Z,687.00
2024-04-23T03:58:32.632Z,679.00
2024-04-23T03:59:32.587Z,676.00
2024-04-23T04:00:32.631Z,679.00
2024-04-23T04:02:11.303Z,600.00
2024-04-23T04:03:11.198Z,600.00
2024-04-23T04:04:11.182Z,600.00
2024-04-23T04:05:11.186Z,600.00
2024-04-23T04:06:11.178Z,600.00
2024-04-23T04:07:11.157Z,601.00
2024-04-23T04:08:11.185Z,600.00
2024-04-23T04:09:11.181Z,617.00
2024-04-23T04:10:11.209Z,615.00
2024-04-23T04:11:11.262Z,614.00
2024-04-23T04:12:11.227Z,611.00
2024-04-23T04:13:20.934Z,622.00
2024-04-23T04:14:12.217Z,623.00
2024-04-23T04:15:11.180Z,624.00
2024-04-23T04:16:11.211Z,622.00
2024-04-23T04:17:11.269Z,624.00
2024-04-23T04:18:11.275Z,628.00
2024-04-23T04:19:11.187Z,622.00
2024-04-23T04:20:11.291Z,630.00
2024-04-23T04:21:11.212Z,624.00
2024-04-23T04:22:11.229Z,622.00
2024-04-23T04:23:11.238Z,620.00
2024-04-23T04:24:11.216Z,629.00
2024-04-23T04:25:11.232Z,622.00
2024-04-23T04:26:11.336Z,624.00
2024-04-23T04:27:11.312Z,618.00
2024-04-23T04:28:11.388Z,625.00
2024-04-23T04:29:11.519Z,612.00
2024-04-23T04:30:11.553Z,617.00
2024-04-23T04:31:11.754Z,607.00
2024-04-23T04:32:19.151Z,600.00
2024-04-23T04:33:19.199Z,600.00
2024-04-23T04:34:21.763Z,600.00
2024-04-23T04:35:19.054Z,600.00
2024-04-23T04:36:19.059Z,600.00
2024-04-23T04:37:19.066Z,600.00
2024-04-23T04:38:19.051Z,600.00
2024-04-23T04:39:19.069Z,600.00
2024-04-23T04:40:19.132Z,608.00
2024-04-23T04:41:19.234Z,602.00
2024-04-23T04:42:19.112Z,606.00
2024-04-23T04:43:19.138Z,602.00
2024-04-23T04:44:19.130Z,603.00
2024-04-23T04:45:19.278Z,610.00
2024-04-23T04:46:19.129Z,599.00
2024-04-23T04:47:19.360Z,605.00
2024-04-23T04:48:19.229Z,610.00
2024-04-23T04:49:19.163Z,607.00
2024-04-23T04:50:19.271Z,602.00
2024-04-23T04:51:19.156Z,610.00
2024-04-23T04:52:19.133Z,609.00
2024-04-23T04:53:19.163Z,612.00
2024-04-23T04:54:19.151Z,615.00
2024-04-23T04:55:19.161Z,605.00
2024-04-23T04:56:19.133Z,614.00
2024-04-23T04:57:19.155Z,609.00
2024-04-23T04:58:19.151Z,615.00
2024-04-23T04:59:19.163Z,609.00
2024-04-23T05:00:43.958Z,616.00
2024-04-23T05:01:19.140Z,617.00
2024-04-23T05:02:19.179Z,619.00
2024-04-23T05:03:19.166Z,622.00
2024-04-23T05:04:19.234Z,624.00
2024-04-23T05:05:19.175Z,625.00
2024-04-23T05:06:19.210Z,624.00
2024-04-23T05:07:19.199Z,622.00
2024-04-23T05:08:19.715Z,620.00
2024-04-23T05:09:19.168Z,623.00
2024-04-23T05:10:19.176Z,619.00
2024-04-23T05:11:19.200Z,618.00
2024-04-23T05:12:19.281Z,622.00
2024-04-23T05:13:19.164Z,615.00
2024-04-23T05:14:19.213Z,612.00
2024-04-23T05:15:19.179Z,613.00
2024-04-23T05:16:19.195Z,618.00
2024-04-23T05:17:19.222Z,619.00
2024-04-23T05:18:19.223Z,620.00
2024-04-23T05:19:19.177Z,616.00
2024-04-23T05:20:19.251Z,623.00
2024-04-23T05:21:19.346Z,615.00
2024-04-23T05:22:19.400Z,616.00
2024-04-23T05:23:19.473Z,625.00
2024-04-23T05:24:19.819Z,619.00
2024-04-23T05:25:19.595Z,622.00
2024-04-23T05:26:19.671Z,623.00
2024-04-23T05:27:19.720Z,620.00
2024-04-23T05:28:19.814Z,626.00
2024-04-23T05:29:19.895Z,625.00
2024-04-23T05:30:19.949Z,624.00
2024-04-23T05:31:20.024Z,627.00
2024-04-23T05:32:20.579Z,628.00
2024-04-23T05:33:20.222Z,625.00
2024-04-23T05:34:20.779Z,631.00
2024-04-23T05:35:20.332Z,631.00
2024-04-23T05:36:20.339Z,632.00
2024-04-23T05:37:20.447Z,630.00
2024-04-23T05:38:20.525Z,648.00
2024-04-23T05:39:20.598Z,659.00
2024-04-23T05:40:20.653Z,720.00
2024-04-23T05:41:21.703Z,751.00
2024-04-23T05:42:20.802Z,781.00
2024-04-23T05:43:20.885Z,810.00
2024-04-23T05:44:23.385Z,814.00
2024-04-23T05:46:43.421Z,839.00
2024-04-23T05:47:21.043Z,843.00
2024-04-23T05:48:21.053Z,885.00
2024-04-23T05:49:21.288Z,985.00
2024-04-23T05:50:26.007Z,1125.00
2024-04-23T05:51:23.750Z,854.00
2024-04-23T05:52:29.524Z,924.00
2024-04-23T05:53:21.964Z,859.00
2024-04-23T05:54:20.959Z,943.00
2024-04-23T05:55:20.952Z,1086.00
2024-04-23T05:56:21.002Z,1309.00
2024-04-23T05:57:20.950Z,1637.00
2024-04-23T05:58:20.987Z,1779.00
2024-04-23T05:59:21.249Z,1748.00
2024-04-23T06:00:21.003Z,1751.00
2024-04-23T06:01:20.975Z,1809.00
2024-04-23T06:02:20.958Z,1811.00
2024-04-23T06:03:21.099Z,1906.00
2024-04-23T06:04:21.083Z,1979.00
2024-04-23T06:05:21.051Z,2023.00
2024-04-23T06:06:21.113Z,2151.00
2024-04-23T06:07:21.132Z,2104.00
2024-04-23T06:08:21.265Z,2038.00
2024-04-23T06:09:21.271Z,2153.00
2024-04-23T06:10:21.222Z,2245.00
2024-04-23T06:11:21.343Z,2259.00
2024-04-23T06:12:21.260Z,2325.00
2024-04-23T06:13:21.344Z,2421.00
2024-04-23T06:14:21.759Z,2512.00
2024-04-23T06:15:21.559Z,2390.00
2024-04-23T06:16:21.599Z,2322.00
2024-04-23T06:17:28.737Z,2384.00
2024-04-23T06:18:22.783Z,2389.00
2024-04-23T06:19:21.723Z,2395.00
2024-04-23T06:20:21.756Z,2425.00
2024-04-23T06:21:21.714Z,2437.00
2024-04-23T06:22:21.710Z,2493.00
2024-04-23T06:23:21.715Z,2463.00
2024-04-23T06:24:21.762Z,2433.00
2024-04-23T06:25:21.724Z,2421.00
2024-04-23T06:26:21.738Z,2491.00
2024-04-23T06:27:21.861Z,2480.00
2024-04-23T06:28:21.951Z,2406.00
2024-04-23T06:29:22.052Z,2359.00
2024-04-23T06:30:23.030Z,2362.00
2024-04-23T06:31:22.016Z,2367.00
2024-04-23T06:32:22.199Z,2401.00
2024-04-23T06:33:22.792Z,2481.00
2024-04-23T06:34:22.332Z,2535.00
2024-04-23T06:35:22.101Z,2494.00
2024-04-23T06:36:22.062Z,2466.00
2024-04-23T06:37:23.995Z,2476.00
2024-04-23T06:38:22.134Z,2473.00
2024-04-23T06:39:22.309Z,2395.00
2024-04-23T06:40:22.168Z,2317.00
2024-04-23T06:41:22.203Z,2243.00
2024-04-23T06:42:22.265Z,2195.00
2024-04-23T06:43:27.356Z,2137.00
2024-04-23T06:44:23.778Z,2137.00
2024-04-23T06:45:22.287Z,2083.00
2024-04-23T06:46:22.284Z,2043.00
2024-04-23T06:47:22.362Z,1999.00
2024-04-23T06:48:22.377Z,1996.00
2024-04-23T06:49:22.300Z,1991.00
2024-04-23T06:50:22.288Z,1986.00
2024-04-23T06:51:22.331Z,1990.00
2024-04-23T06:52:22.280Z,2012.00
2024-04-23T06:53:22.276Z,1992.00
2024-04-23T06:54:22.282Z,1990.00
2024-04-23T06:55:22.314Z,1973.00
2024-04-23T06:56:22.288Z,1956.00
2024-04-23T06:57:22.274Z,1954.00
2024-04-23T06:58:24.407Z,1949.00
2024-04-23T06:59:22.414Z,1949.00
2024-04-23T07:00:22.808Z,1942.00
2024-04-23T07:01:22.627Z,1934.00
2024-04-23T07:02:22.945Z,1934.00
2024-04-23T07:03:22.809Z,1938.00
2024-04-23T07:04:22.855Z,1948.00
2024-04-23T07:05:22.948Z,1940.00
2024-04-23T07:06:23.049Z,1942.00
2024-04-23T07:07:23.150Z,1951.00
2024-04-23T07:08:23.199Z,1945.00
2024-04-23T07:09:23.326Z,1953.00
2024-04-23T07:10:23.479Z,1950.00
2024-04-23T07:11:23.662Z,1941.00
2024-04-23T07:12:23.633Z,1944.00
2024-04-23T07:13:23.748Z,1952.00
2024-04-23T07:14:23.797Z,1948.00
2024-04-23T07:15:23.916Z,1952.00
2024-04-23T07:16:24.027Z,1974.00
2024-04-23T07:17:24.197Z,1976.00
2024-04-23T07:18:24.327Z,1980.00
2024-04-23T07:19:24.303Z,2000.00
2024-04-23T07:20:24.453Z,2023.00
2024-04-23T07:21:24.522Z,2037.00
2024-04-23T07:22:24.615Z,2040.00
2024-04-23T07:23:24.737Z,2048.00
2024-04-23T07:24:24.768Z,2044.00
2024-04-23T07:25:25.385Z,2041.00
2024-04-23T07:26:24.891Z,2031.00
2024-04-23T07:27:24.950Z,2038.00
2024-04-23T07:28:24.971Z,2037.00
2024-04-23T07:29:25.004Z,2048.00
2024-04-23T07:30:25.502Z,2040.00
2024-04-23T07:31:25.137Z,2051.00
2024-04-23T07:32:25.271Z,2037.00
2024-04-23T07:33:25.379Z,2042.00
2024-04-23T07:34:25.252Z,2045.00
2024-04-23T07:35:25.429Z,1980.00
2024-04-23T07:36:25.352Z,1918.00
2024-04-23T07:37:25.421Z,1857.00
2024-04-23T07:38:25.487Z,1802.00
2024-04-23T07:39:25.586Z,1765.00
2024-04-23T07:40:25.776Z,1742.00
2024-04-23T07:41:25.802Z,1708.00
2024-04-23T07:42:25.893Z,1666.00
2024-04-23T07:43:26.483Z,1607.00
2024-04-23T07:44:26.805Z,1584.00
2024-04-23T07:45:26.316Z,1598.00
2024-04-23T07:46:26.251Z,1494.00
2024-04-23T07:47:26.386Z,1349.00
2024-04-23T07:48:26.505Z,1192.00
2024-04-23T07:49:26.532Z,1126.00
2024-04-23T07:50:26.620Z,1107.00
2024-04-23T07:51:29.124Z,1111.00
2024-04-23T07:52:26.837Z,1103.00
2024-04-23T07:53:26.882Z,1138.00
2024-04-23T07:54:26.896Z,1185.00
2024-04-23T07:55:27.292Z,1260.00
2024-04-23T07:56:26.939Z,1310.00
2024-04-23T07:57:27.690Z,1436.00
2024-04-23T07:58:27.023Z,1443.00
2024-04-23T07:59:27.052Z,1555.00
2024-04-23T08:00:27.268Z,1588.00
2024-04-23T08:01:27.102Z,1553.00
2024-04-23T08:02:27.264Z,1603.00
2024-04-23T08:03:27.275Z,1561.00
2024-04-23T08:04:27.363Z,1623.00
2024-04-23T08:05:27.501Z,1668.00
2024-04-23T08:06:27.587Z,1637.00
2024-04-23T08:07:27.699Z,1589.00
2024-04-23T08:08:27.798Z,1557.00
2024-04-23T08:09:27.909Z,1600.00
2024-04-23T08:10:27.998Z,1584.00
2024-04-23T08:11:28.182Z,1617.00
2024-04-23T08:12:28.238Z,1631.00
2024-04-23T08:13:28.374Z,1644.00
2024-04-23T08:14:28.474Z,1635.00
2024-04-23T08:15:28.567Z,1657.00
2024-04-23T08:16:28.691Z,1725.00
2024-04-23T08:17:28.885Z,1773.00
2024-04-23T08:18:28.903Z,1796.00
2024-04-23T08:19:28.922Z,1765.00
2024-04-23T08:20:29.004Z,1790.00
2024-04-23T08:21:29.106Z,1806.00
2024-04-23T08:22:29.188Z,1781.00
2024-04-23T08:23:29.299Z,1787.00
2024-04-23T08:24:29.366Z,1797.00
2024-04-23T08:25:29.482Z,1835.00
2024-04-23T08:26:29.575Z,1851.00
2024-04-23T08:27:29.634Z,1878.00
2024-04-23T08:28:29.840Z,1887.00
2024-04-23T08:29:29.858Z,1895.00
2024-04-23T08:30:30.398Z,1869.00
2024-04-23T08:31:30.001Z,1844.00
2024-04-23T08:32:31.046Z,1827.00
2024-04-23T08:33:30.254Z,1811.00
2024-04-23T08:34:30.853Z,1828.00
2024-04-23T08:35:30.810Z,1809.00
2024-04-23T08:36:30.471Z,1730.00
2024-04-23T08:37:30.612Z,1696.00
2024-04-23T08:38:31.179Z,1617.00
2024-04-23T08:39:30.766Z,1594.00
2024-04-23T08:40:30.937Z,1862.00
2024-04-23T08:41:31.037Z,1851.00
2024-04-23T08:42:31.555Z,1722.00
2024-04-23T08:43:31.257Z,1652.00
2024-04-23T08:44:31.322Z,1599.00
2024-04-23T08:45:31.816Z,1533.00
2024-04-23T08:47:18.397Z,600.00
2024-04-23T08:48:18.269Z,600.00
2024-04-23T08:49:18.190Z,600.00
2024-04-23T08:50:18.216Z,600.00
2024-04-23T08:51:18.339Z,600.00
2024-04-23T08:52:18.239Z,600.00
2024-04-23T08:53:18.271Z,605.00
2024-04-23T08:54:19.319Z,600.00
2024-04-23T08:55:18.245Z,600.00
2024-04-23T08:56:18.317Z,602.00
2024-04-23T08:57:18.340Z,600.00
2024-04-23T08:58:18.330Z,600.00
2024-04-23T08:59:18.408Z,601.00
2024-04-23T09:00:18.416Z,604.00
2024-04-23T09:01:18.489Z,601.00
2024-04-23T09:02:18.534Z,601.00
2024-04-23T09:03:52.848Z,600.00
2024-04-23T09:04:52.902Z,600.00
2024-04-23T09:05:52.898Z,600.00
2024-04-23T09:06:52.876Z,600.00
2024-04-23T09:07:52.929Z,600.00
2024-04-23T09:08:52.917Z,602.00
2024-04-23T09:09:52.854Z,602.00
2024-04-23T09:10:52.879Z,601.00
2024-04-23T09:11:52.919Z,605.00
2024-04-23T09:12:52.887Z,600.00
2024-04-23T09:13:52.966Z,600.00
2024-04-23T09:14:52.898Z,601.00
2024-04-23T09:15:52.917Z,602.00
2024-04-23T09:16:54.717Z,600.00
2024-04-23T09:17:52.930Z,603.00
2024-04-23T09:18:52.965Z,602.00
2024-04-23T09:19:52.962Z,603.00
2024-04-23T09:20:52.955Z,602.00
2024-04-23T09:21:52.953Z,603.00
2024-04-23T09:22:53.009Z,604.00
2024-04-23T09:23:52.923Z,600.00
2024-04-23T09:24:52.997Z,601.00
2024-04-23T09:25:52.984Z,600.00
2024-04-23T09:26:52.968Z,603.00
2024-04-23T09:27:53.002Z,600.00
2024-04-23T09:28:52.979Z,602.00
2024-04-23T09:29:52.945Z,602.00
2024-04-23T09:30:53.000Z,600.00
2024-04-23T09:31:53.078Z,601.00
2024-04-23T09:32:53.127Z,601.00
2024-04-23T09:33:52.975Z,602.00
2024-04-23T09:34:52.993Z,600.00
2024-04-23T09:35:52.956Z,600.00
2024-04-23T09:36:53.512Z,603.00
2024-04-23T09:37:52.968Z,600.00
2024-04-23T09:38:52.970Z,601.00
2024-04-23T09:39:52.965Z,600.00
2024-04-23T09:40:52.982Z,602.00
2024-04-23T09:41:52.986Z,600.00
2024-04-23T09:42:52.990Z,601.00
2024-04-23T09:43:53.019Z,606.00
2024-04-23T09:44:52.999Z,600.00
2024-04-23T09:45:53.009Z,600.00
2024-04-23T09:46:53.027Z,600.00
2024-04-23T09:47:53.058Z,602.00
2024-04-23T09:48:53.071Z,601.00
2024-04-23T09:49:55.105Z,600.00
2024-04-23T09:50:52.978Z,602.00
2024-04-23T09:51:53.510Z,605.00
2024-04-23T09:52:53.054Z,601.00
2024-04-23T09:53:53.007Z,600.00
2024-04-23T09:54:53.066Z,601.00
2024-04-23T09:55:53.114Z,602.00
2024-04-23T09:56:53.484Z,603.00
2024-04-23T09:57:53.183Z,604.00
2024-04-23T09:58:53.286Z,604.00
2024-04-23T09:59:53.302Z,601.00
2024-04-23T10:00:53.365Z,602.00
2024-04-23T10:01:53.423Z,602.00
2024-04-23T10:02:53.483Z,602.00
2024-04-23T10:03:53.518Z,602.00
2024-04-23T10:04:53.583Z,601.00
2024-04-23T10:05:53.592Z,602.00
2024-04-23T10:06:53.652Z,600.00
2024-04-23T10:07:53.744Z,600.00
2024-04-23T10:08:53.827Z,605.00
2024-04-23T10:09:53.937Z,603.00
2024-04-23T10:10:54.078Z,604.00
2024-04-23T10:11:54.202Z,601.00
2024-04-23T10:12:54.269Z,600.00
2024-04-23T10:13:54.349Z,604.00
2024-04-23T10:14:54.401Z,601.00
2024-04-23T10:15:54.542Z,603.00
2024-04-23T10:16:54.671Z,603.00
2024-04-23T10:17:54.903Z,602.00
2024-04-23T10:18:54.875Z,601.00
2024-04-23T10:19:54.929Z,600.00
2024-04-23T10:20:55.042Z,602.00
2024-04-23T10:21:55.121Z,606.00
2024-04-23T10:22:55.291Z,604.00
2024-04-23T10:23:55.326Z,607.00
2024-04-23T10:24:55.425Z,603.00
2024-04-23T10:25:55.550Z,606.00
2024-04-23T10:26:55.621Z,602.00
2024-04-23T10:27:55.753Z,602.00
2024-04-23T10:28:55.836Z,604.00
2024-04-23T10:29:55.964Z,602.00
2024-04-23T10:30:56.018Z,604.00
2024-04-23T10:31:56.144Z,603.00
2024-04-23T10:32:56.320Z,602.00
2024-04-23T10:33:56.314Z,606.00
2024-04-23T10:34:56.491Z,600.00
2024-04-23T10:35:56.530Z,601.00
2024-04-23T10:36:56.632Z,603.00
2024-04-23T10:37:56.846Z,605.00
2024-04-23T10:38:56.852Z,605.00
2024-04-23T10:39:56.975Z,600.00
2024-04-23T10:40:58.938Z,606.00
2024-04-23T10:41:57.155Z,599.00
2024-04-23T10:42:57.176Z,605.00
2024-04-23T10:43:57.303Z,601.00
2024-04-23T10:44:58.015Z,600.00
2024-04-23T10:45:57.435Z,601.00
2024-04-23T10:46:57.462Z,603.00
2024-04-23T10:47:59.438Z,601.00
2024-04-23T10:48:57.548Z,601.00
2024-04-23T10:49:57.642Z,600.00
2024-04-23T10:50:57.672Z,603.00
2024-04-23T10:51:57.789Z,601.00
2024-04-23T10:52:57.806Z,600.00
2024-04-23T10:53:57.874Z,600.00
2024-04-23T10:54:57.984Z,604.00
2024-04-23T10:55:58.118Z,603.00
2024-04-23T10:56:58.935Z,601.00
2024-04-23T10:57:58.254Z,600.00
2024-04-23T10:58:58.322Z,601.00
2024-04-23T10:59:58.398Z,600.00
2024-04-23T11:00:58.595Z,601.00
2024-04-23T11:01:58.568Z,639.00
2024-04-23T11:02:58.652Z,620.00
2024-04-23T11:03:58.797Z,653.00
2024-04-23T11:04:58.818Z,701.00
2024-04-23T11:05:58.815Z,684.00
2024-04-23T11:06:58.684Z,797.00
2024-04-23T11:07:58.752Z,863.00
2024-04-23T11:08:58.778Z,947.00
2024-04-23T11:09:58.850Z,968.00
2024-04-23T11:10:59.002Z,1003.00
2024-04-23T11:11:59.517Z,1036.00
2024-04-23T11:12:59.148Z,1088.00
2024-04-23T11:13:59.277Z,1091.00
2024-04-23T11:14:59.344Z,1139.00
2024-04-23T11:15:59.442Z,1160.00
2024-04-23T11:16:59.555Z,1155.00
2024-04-23T11:17:59.745Z,1190.00
2024-04-23T11:18:59.755Z,1273.00
2024-04-23T11:19:59.838Z,1277.00
2024-04-23T11:20:59.970Z,1318.00
2024-04-23T11:22:00.076Z,1326.00
2024-04-23T11:23:00.121Z,1338.00
2024-04-23T11:24:00.166Z,1405.00
2024-04-23T11:25:00.306Z,1424.00
2024-04-23T11:26:00.379Z,1441.00
2024-04-23T11:27:00.610Z,1464.00
2024-04-23T11:28:00.502Z,1427.00
2024-04-23T11:29:00.662Z,1388.00
2024-04-23T11:30:00.752Z,1373.00
2024-04-23T11:31:00.743Z,1353.00
2024-04-23T11:32:01.266Z,1339.00
2024-04-23T11:33:01.025Z,1311.00
2024-04-23T11:34:00.935Z,1283.00
2024-04-23T11:35:01.094Z,1271.00
2024-04-23T11:36:01.151Z,1258.00
2024-04-23T11:37:01.567Z,1248.00
2024-04-23T11:38:01.473Z,1243.00
2024-04-23T11:39:01.575Z,1226.00
2024-04-23T11:40:01.739Z,1201.00
2024-04-23T11:41:01.731Z,1194.00
2024-04-23T11:42:01.799Z,1161.00
2024-04-23T11:43:01.935Z,1132.00
2024-04-23T11:44:02.063Z,1129.00
2024-04-23T11:45:02.147Z,1126.00
2024-04-23T11:46:02.271Z,1091.00
2024-04-23T11:47:02.661Z,1088.00
2024-04-23T11:48:02.663Z,1073.00
2024-04-23T11:49:02.617Z,1067.00
2024-04-23T11:50:02.884Z,1056.00
2024-04-23T11:51:02.844Z,1041.00
2024-04-23T11:52:03.801Z,1037.00
2024-04-23T11:53:03.084Z,1026.00
2024-04-23T11:54:03.036Z,1019.00
2024-04-23T11:55:03.040Z,1004.00
2024-04-23T11:56:03.150Z,1000.00
2024-04-23T11:57:03.180Z,989.00
2024-04-23T11:58:03.269Z,976.00
2024-04-23T11:59:03.453Z,973.00
2024-04-23T12:00:03.512Z,968.00
2024-04-23T12:01:03.664Z,953.00
2024-04-23T12:02:03.776Z,950.00
2024-04-23T12:03:03.830Z,944.00
2024-04-23T12:04:03.977Z,931.00
2024-04-23T12:05:04.256Z,928.00
2024-04-23T12:06:04.266Z,911.00
2024-04-23T12:07:04.314Z,899.00
2024-04-23T12:08:04.512Z,897.00
2024-04-23T12:09:04.537Z,883.00
2024-04-23T12:10:04.647Z,881.00
2024-04-23T12:11:04.853Z,868.00
2024-04-23T12:12:04.935Z,851.00
2024-04-23T12:13:04.981Z,856.00
2024-04-23T12:14:05.198Z,847.00
2024-04-23T12:15:05.209Z,835.00
2024-04-23T12:16:05.373Z,831.00
2024-04-23T12:17:05.530Z,823.00
2024-04-23T12:18:05.526Z,815.00
2024-04-23T12:19:05.598Z,801.00
2024-04-23T12:20:05.767Z,802.00
2024-04-23T12:21:05.882Z,791.00
2024-04-23T12:22:05.976Z,792.00
2024-04-23T12:23:06.158Z,769.00
2024-04-23T12:24:06.191Z,774.00
2024-04-23T12:25:06.239Z,760.00